createdAt,value
2023-05-20T00:00:49.666Z,18.60
2023-05-20T00:05:49.624Z,17.80
2023-05-20T00:10:49.537Z,19.00
2023-05-20T00:15:49.474Z,19.20
2023-05-20T00:20:49.407Z,22.40
2023-05-20T00:25:49.348Z,20.70
2023-05-20T00:30:49.282Z,22.10
2023-05-20T00:35:49.230Z,23.00
2023-05-20T00:40:49.172Z,23.90
2023-05-20T00:45:49.101Z,23.70
2023-05-20T00:50:49.037Z,25.50
2023-05-20T00:55:48.965Z,27.50
2023-05-20T01:00:48.871Z,25.90
2023-05-20T01:05:48.816Z,26.40
2023-05-20T01:10:48.732Z,28.00
2023-05-20T01:15:48.708Z,26.60
2023-05-20T01:20:48.610Z,26.20
2023-05-20T01:25:48.538Z,21.60
2023-05-20T01:30:48.468Z,25.70
2023-05-20T01:35:48.409Z,27.80
2023-05-20T01:40:48.334Z,26.10
2023-05-20T01:45:48.277Z,26.60
2023-05-20T01:50:48.194Z,21.80
2023-05-20T01:55:48.130Z,26.80
2023-05-20T02:00:48.111Z,22.00
2023-05-20T02:05:48.011Z,24.10
2023-05-20T02:10:47.955Z,27.00
2023-05-20T02:15:47.856Z,28.60
2023-05-20T02:20:47.801Z,26.80
2023-05-20T02:25:47.731Z,27.40
2023-05-20T02:30:47.674Z,24.60
2023-05-20T02:35:47.614Z,25.60
2023-05-20T02:40:47.547Z,22.70
2023-05-20T02:45:47.504Z,24.20
2023-05-20T02:50:47.404Z,20.70
2023-05-20T02:55:47.338Z,26.20
2023-05-20T03:00:47.257Z,23.20
2023-05-20T03:05:47.192Z,19.30
2023-05-20T03:10:47.131Z,21.40
2023-05-20T03:15:47.093Z,25.40
2023-05-20T03:20:47.009Z,24.80
2023-05-20T03:25:46.925Z,27.40
2023-05-20T03:30:46.871Z,25.10
2023-05-20T03:35:46.792Z,30.20
2023-05-20T03:40:46.717Z,24.40
2023-05-20T03:45:46.648Z,29.10
2023-05-20T03:50:46.603Z,26.80
2023-05-20T03:55:46.515Z,26.30
2023-05-20T04:00:46.456Z,24.80
2023-05-20T04:05:46.377Z,21.10
2023-05-20T04:10:46.339Z,21.40
2023-05-20T04:15:46.259Z,25.30
2023-05-20T04:20:46.185Z,24.70
2023-05-20T04:25:46.134Z,23.80
2023-05-20T04:30:46.038Z,21.80
2023-05-20T04:35:45.973Z,24.30
2023-05-20T04:40:45.913Z,23.30
2023-05-20T04:45:45.872Z,24.60
2023-05-20T04:50:45.783Z,21.70
2023-05-20T04:55:45.725Z,23.80
2023-05-20T05:00:45.649Z,22.70
2023-05-20T05:05:45.587Z,23.30
2023-05-20T05:10:45.526Z,26.30
2023-05-20T05:15:45.495Z,25.80
2023-05-20T05:20:45.425Z,20.90
2023-05-20T05:25:45.327Z,25.80
2023-05-20T05:30:45.258Z,27.50
2023-05-20T05:35:45.180Z,28.90
2023-05-20T05:40:45.115Z,23.80
2023-05-20T05:45:45.061Z,27.90
2023-05-20T05:50:44.966Z,30.10
2023-05-20T05:55:44.913Z,27.20
2023-05-20T06:00:44.877Z,27.20
2023-05-20T06:05:44.792Z,33.70
2023-05-20T06:10:44.700Z,26.80
2023-05-20T06:15:44.623Z,32.20
2023-05-20T06:20:44.587Z,34.40
2023-05-20T06:25:44.502Z,28.90
2023-05-20T06:30:44.458Z,30.80
2023-05-20T06:35:44.368Z,31.30
2023-05-20T06:40:44.299Z,31.70
2023-05-20T06:45:44.225Z,31.40
2023-05-20T06:50:44.160Z,33.50
2023-05-20T06:55:44.089Z,32.90
2023-05-20T07:00:44.018Z,28.70
2023-05-20T07:05:43.957Z,32.00
2023-05-20T07:10:44.257Z,30.30
2023-05-20T07:15:43.899Z,26.70
2023-05-20T07:20:43.854Z,24.70
2023-05-20T07:25:43.750Z,27.70
2023-05-20T07:30:43.918Z,25.00
2023-05-20T07:35:43.705Z,30.40
2023-05-20T07:40:43.501Z,30.50
2023-05-20T07:45:43.491Z,27.40
2023-05-20T07:50:43.400Z,24.70
2023-05-20T07:55:43.322Z,25.40
2023-05-20T08:00:43.226Z,22.60
2023-05-20T08:05:43.235Z,25.10
2023-05-20T08:10:43.129Z,24.60
2023-05-20T08:15:43.056Z,26.10
2023-05-20T08:20:43.046Z,29.30
2023-05-20T08:25:42.935Z,28.10
2023-05-20T08:30:42.964Z,27.40
2023-05-20T08:35:42.799Z,26.30
2023-05-20T08:40:42.753Z,25.40
2023-05-20T08:45:42.648Z,25.00
2023-05-20T08:50:42.711Z,24.60
2023-05-20T08:55:42.530Z,24.00
2023-05-20T09:00:42.478Z,25.10
2023-05-20T09:05:42.392Z,25.40
2023-05-20T09:10:42.538Z,24.60
2023-05-20T09:15:43.859Z,23.90
2023-05-20T09:20:42.314Z,25.40
2023-05-20T09:25:42.203Z,25.40
2023-05-20T09:30:44.449Z,24.40
2023-05-20T09:35:42.158Z,22.40
2023-05-20T09:40:42.475Z,22.20
2023-05-20T09:45:41.949Z,25.40
2023-05-20T09:50:41.808Z,26.10
2023-05-20T09:55:41.767Z,26.20
2023-05-20T10:00:41.693Z,29.20
2023-05-20T10:05:41.645Z,25.40
2023-05-20T10:10:41.583Z,28.10
2023-05-20T10:15:41.503Z,24.90
2023-05-20T10:20:41.406Z,24.00
2023-05-20T10:25:41.361Z,22.60
2023-05-20T10:30:42.548Z,23.90
2023-05-20T10:35:41.212Z,22.90
2023-05-20T10:40:41.204Z,22.20
2023-05-20T10:45:41.106Z,23.00
2023-05-20T10:50:41.064Z,24.70
2023-05-20T10:55:41.039Z,24.50
2023-05-20T11:00:41.075Z,20.90
2023-05-20T11:05:40.861Z,24.90
2023-05-20T11:10:40.726Z,22.50
2023-05-20T11:15:40.738Z,22.60
2023-05-20T11:20:40.594Z,22.50
2023-05-20T11:25:40.518Z,22.80
2023-05-20T11:30:40.470Z,22.30
2023-05-20T11:35:40.433Z,20.90
2023-05-20T11:40:49.978Z,21.60
2023-05-20T11:45:41.298Z,17.70
2023-05-20T11:50:40.278Z,18.80
2023-05-20T11:55:40.158Z,17.90
2023-05-20T12:00:51.219Z,18.10
2023-05-20T12:05:41.011Z,18.50
2023-05-20T12:10:40.330Z,18.00
2023-05-20T12:15:40.277Z,19.10
2023-05-20T12:20:39.931Z,20.00
2023-05-20T12:25:39.831Z,18.90
2023-05-20T12:30:39.743Z,19.90
2023-05-20T12:35:39.700Z,17.70
2023-05-20T12:40:39.636Z,18.50
2023-05-20T12:45:39.453Z,16.90
2023-05-20T12:50:39.463Z,16.50
2023-05-20T12:55:40.083Z,18.30
2023-05-20T13:00:39.314Z,18.60
2023-05-20T13:05:40.077Z,16.70
2023-05-20T13:10:39.701Z,18.60
2023-05-20T13:15:39.088Z,18.30
2023-05-20T13:20:39.069Z,18.60
2023-05-20T13:25:38.970Z,16.30
2023-05-20T13:30:39.134Z,16.20
2023-05-20T13:35:38.804Z,20.20
2023-05-20T13:40:39.133Z,19.70
2023-05-20T13:45:38.650Z,17.90
2023-05-20T13:50:38.605Z,17.10
2023-05-20T13:55:38.705Z,17.80
2023-05-20T14:00:38.501Z,17.50
2023-05-20T14:05:38.405Z,17.70
2023-05-20T14:10:38.348Z,19.00
2023-05-20T14:15:38.319Z,19.00
2023-05-20T14:20:38.187Z,18.60
2023-05-20T14:25:38.120Z,22.40
2023-05-20T14:30:38.295Z,19.80
2023-05-20T14:35:37.981Z,21.30
2023-05-20T14:40:38.062Z,20.00
2023-05-20T14:45:37.887Z,21.00
2023-05-20T14:50:37.910Z,18.40
2023-05-20T14:55:37.723Z,17.90
2023-05-20T15:00:37.971Z,21.20
2023-05-20T15:05:37.660Z,20.30
2023-05-20T15:10:37.906Z,21.80
2023-05-20T15:15:37.441Z,18.80
2023-05-20T15:20:37.378Z,18.50
2023-05-20T15:25:37.504Z,18.90
2023-05-20T15:30:37.521Z,19.00
2023-05-20T15:35:37.177Z,19.50
2023-05-20T15:40:37.106Z,17.50
2023-05-20T15:45:37.055Z,20.60
2023-05-20T15:50:37.205Z,19.00
2023-05-20T15:55:36.907Z,18.70
2023-05-20T16:00:37.096Z,19.20
2023-05-20T16:05:36.993Z,21.60
2023-05-20T16:10:36.965Z,22.50
2023-05-20T16:15:36.722Z,19.50
2023-05-20T16:20:36.716Z,20.00
2023-05-20T16:25:36.535Z,20.50
2023-05-20T16:30:36.722Z,20.50
2023-05-20T16:35:36.385Z,19.70
2023-05-20T16:40:36.375Z,19.70
2023-05-20T16:45:36.242Z,21.10
2023-05-20T16:50:36.280Z,19.40
2023-05-20T16:55:36.110Z,21.80
2023-05-20T17:00:36.308Z,22.40
2023-05-20T17:05:35.969Z,20.60
2023-05-20T17:10:36.161Z,18.50
2023-05-20T17:15:35.834Z,18.70
2023-05-20T17:20:35.950Z,18.50
2023-05-20T17:25:35.742Z,18.30
2023-05-20T17:30:35.839Z,19.10
2023-05-20T17:35:35.566Z,17.40
2023-05-20T17:40:35.864Z,17.20
2023-05-20T17:45:35.426Z,16.80
2023-05-20T17:50:35.589Z,18.70
2023-05-20T17:55:35.297Z,19.10
2023-05-20T18:00:35.454Z,17.60
2023-05-20T18:05:35.160Z,17.30
2023-05-20T18:10:35.266Z,17.40
2023-05-20T18:15:35.026Z,19.30
2023-05-20T18:20:35.164Z,17.50
2023-05-20T18:25:34.901Z,16.00
2023-05-20T18:30:34.986Z,15.60
2023-05-20T18:35:34.757Z,16.70
2023-05-20T18:40:34.917Z,17.60
2023-05-20T18:45:34.693Z,17.00
2023-05-20T18:50:34.871Z,18.20
2023-05-20T18:55:34.488Z,17.40
2023-05-20T19:00:34.574Z,16.70
2023-05-20T19:05:34.612Z,17.40
2023-05-20T19:10:34.295Z,18.70
2023-05-20T19:15:34.389Z,18.90
2023-05-20T19:20:34.159Z,18.80
2023-05-20T19:25:34.272Z,21.00
2023-05-20T19:30:34.123Z,17.60
2023-05-20T19:35:34.256Z,16.90
2023-05-20T19:40:34.201Z,19.90
2023-05-20T19:45:34.037Z,18.50
2023-05-20T19:50:33.825Z,18.60
2023-05-20T19:55:33.816Z,16.50
2023-05-20T20:00:33.854Z,16.30
2023-05-20T20:05:33.854Z,17.70
2023-05-20T20:10:33.492Z,19.30
2023-05-20T20:15:33.710Z,21.20
2023-05-20T20:20:33.353Z,24.50
2023-05-20T20:25:35.440Z,21.30
2023-05-20T20:30:33.415Z,24.00
2023-05-20T20:35:33.439Z,21.10
2023-05-20T20:40:34.730Z,21.30
2023-05-20T20:45:33.150Z,21.70
2023-05-20T20:50:32.975Z,24.90
2023-05-20T20:55:32.963Z,26.80
2023-05-20T21:00:32.853Z,23.10
2023-05-20T21:05:32.851Z,25.80
2023-05-20T21:10:34.028Z,23.80
2023-05-20T21:15:32.719Z,23.50
2023-05-20T21:20:32.555Z,23.00
2023-05-20T21:25:32.969Z,24.50
2023-05-20T21:30:32.454Z,27.80
2023-05-20T21:35:32.362Z,30.30
2023-05-20T21:40:32.293Z,31.30
2023-05-20T21:45:32.298Z,28.60
2023-05-20T21:50:32.269Z,27.40
2023-05-20T21:55:32.216Z,27.40
2023-05-20T22:00:32.040Z,28.70
2023-05-20T22:05:31.956Z,30.20
2023-05-20T22:10:31.890Z,30.80
2023-05-20T22:15:32.121Z,28.90
2023-05-20T22:20:33.313Z,31.00
2023-05-20T22:25:31.711Z,30.30
2023-05-20T22:30:31.686Z,29.40
2023-05-20T22:35:31.563Z,28.40
2023-05-20T22:40:31.498Z,31.80
2023-05-20T22:45:31.475Z,32.70
2023-05-20T22:50:31.360Z,29.00
2023-05-20T22:55:31.273Z,31.40
2023-05-20T23:00:31.211Z,35.10
2023-05-20T23:05:31.140Z,32.00
2023-05-20T23:10:31.077Z,31.20
2023-05-20T23:15:31.020Z,30.60
2023-05-20T23:20:30.938Z,33.80
2023-05-20T23:25:30.920Z,32.80
2023-05-20T23:30:30.806Z,32.70
2023-05-20T23:35:30.740Z,33.70
2023-05-20T23:40:30.649Z,36.00
2023-05-20T23:45:30.580Z,32.20
2023-05-20T23:50:30.516Z,34.30
2023-05-20T23:55:30.455Z,33.50
